Time;durP1;ratioP1;P1;durP2;ratioP2;P2;SDS_P1;SDS_P2;PMS_P1;PMS_P2;Temp;Humidity;BMP_temperature;BMP_pressure;BME280_temperature;BME280_humidity;BME280_pressure;Samples;Min_cycle;Max_cycle;Signal;HPM_P1;HPM_P2
2023/10/29 00:01:39;;;;;;;0.70;0.70;;;10.70;99.90;;;;;;5075814;28;20094;-70
2023/10/29 00:04:04;;;;;;;0.70;0.70;;;12.00;99.90;;;;;;5076151;28;20119;-70
2023/10/29 00:06:30;;;;;;;0.70;0.70;;;10.70;99.90;;;;;;5075936;28;20043;-70
2023/10/29 00:08:58;;;;;;;0.80;0.80;;;10.70;99.90;;;;;;5076740;28;20131;-70
2023/10/29 00:11:24;;;;;;;0.70;0.70;;;10.70;99.90;;;;;;5075863;28;20055;-69
2023/10/29 00:13:50;;;;;;;0.68;0.68;;;10.80;99.90;;;;;;5075815;28;20032;-70
2023/10/29 00:16:15;;;;;;;2.03;1.90;;;10.80;99.90;;;;;;5075890;28;20444;-69
2023/10/29 00:18:41;;;;;;;0.70;0.70;;;10.80;99.90;;;;;;5075817;28;20115;-69
2023/10/29 00:21:07;;;;;;;0.70;0.70;;;10.80;99.90;;;;;;5075557;28;20037;-69
2023/10/29 00:23:33;;;;;;;0.77;0.77;;;11.10;99.90;;;;;;5075525;28;20040;-69
2023/10/29 00:25:59;;;;;;;0.75;0.75;;;10.80;99.90;;;;;;5075871;28;20094;-69
2023/10/29 00:28:27;;;;;;;0.63;0.63;;;11.50;99.90;;;;;;5075484;28;20468;-69
2023/10/29 00:30:56;;;;;;;0.80;0.80;;;10.80;99.90;;;;;;5074258;28;20051;-69
2023/10/29 00:33:22;;;;;;;0.70;0.70;;;10.90;99.90;;;;;;5075376;28;20032;-69
2023/10/29 00:35:48;;;;;;;1.10;1.00;;;10.80;99.90;;;;;;5074126;28;20047;-70
2023/10/29 00:38:13;;;;;;;0.60;0.60;;;10.90;99.90;;;;;;5076040;28;20041;-69
2023/10/29 00:40:39;;;;;;;0.70;0.70;;;10.90;99.90;;;;;;5075225;28;20040;-69
2023/10/29 00:43:05;;;;;;;0.70;0.70;;;10.90;99.90;;;;;;5075201;28;20040;-70
2023/10/29 00:45:31;;;;;;;0.60;0.60;;;11.40;99.90;;;;;;5075169;28;20036;-70
2023/10/29 00:47:58;;;;;;;0.70;0.70;;;10.90;99.90;;;;;;5075111;28;20040;-70
2023/10/29 00:50:24;;;;;;;0.80;0.80;;;11.00;99.90;;;;;;5074723;28;20049;-70
2023/10/29 00:52:51;;;;;;;0.70;0.70;;;11.00;99.90;;;;;;5074382;28;20173;-70
2023/10/29 00:55:17;;;;;;;0.60;0.60;;;11.00;99.90;;;;;;5075299;28;20076;-69
2023/10/29 00:57:46;;;;;;;0.60;0.60;;;11.00;99.90;;;;;;5075381;28;20036;-69
2023/10/29 01:00:12;;;;;;;0.70;0.70;;;11.70;99.90;;;;;;5075166;28;20123;-70
2023/10/29 01:02:38;;;;;;;0.70;0.70;;;11.10;99.90;;;;;;5074836;28;20155;-69
2023/10/29 01:05:05;;;;;;;0.60;0.60;;;11.10;99.90;;;;;;5074751;28;20071;-69
2023/10/29 01:07:31;;;;;;;0.70;0.70;;;11.10;99.90;;;;;;5074165;28;20106;-70
2023/10/29 01:09:59;;;;;;;0.82;0.82;;;11.20;99.90;;;;;;5075128;28;20427;-70
2023/10/29 01:12:27;;;;;;;0.80;0.77;;;11.20;99.90;;;;;;5074532;28;20125;-69
2023/10/29 01:14:52;;;;;;;0.70;0.70;;;11.20;99.90;;;;;;5073289;28;20036;-70
2023/10/29 01:17:20;;;;;;;0.70;0.70;;;11.20;99.90;;;;;;5074451;28;20089;-71
2023/10/29 01:19:46;;;;;;;0.60;0.60;;;11.30;99.90;;;;;;5074403;28;20036;-70
2023/10/29 01:22:11;;;;;;;0.75;0.75;;;11.20;99.90;;;;;;5074446;28;20043;-70
2023/10/29 01:24:38;;;;;;;0.70;0.70;;;11.20;99.90;;;;;;5074429;28;20465;-70
2023/10/29 01:27:04;;;;;;;;;;;11.30;99.90;;;;;;5075082;28;20420;-70
2023/10/29 01:29:30;;;;;;;0.60;0.60;;;11.20;99.90;;;;;;5074237;28;20092;-70
2023/10/29 01:31:56;;;;;;;0.70;0.70;;;11.40;99.90;;;;;;5074200;28;20036;-70
2023/10/29 01:34:21;;;;;;;0.70;0.70;;;12.50;99.90;;;;;;5074077;28;20766;-70
2023/10/29 01:36:47;;;;;;;0.80;0.80;;;11.40;99.90;;;;;;5074176;28;20040;-70
2023/10/29 01:39:12;;;;;;;0.60;0.60;;;11.40;99.90;;;;;;5072957;28;20036;-70
2023/10/29 01:41:38;;;;;;;0.68;0.68;;;11.50;99.90;;;;;;5074130;28;20032;-70
2023/10/29 01:44:04;;;;;;;0.70;0.70;;;11.50;99.90;;;;;;5074674;28;20033;-70
2023/10/29 01:46:29;;;;;;;0.70;0.70;;;11.50;99.90;;;;;;5074034;28;20055;-70
2023/10/29 01:48:55;;;;;;;0.60;0.60;;;11.50;99.90;;;;;;5073893;28;20115;-70
2023/10/29 01:51:21;;;;;;;0.60;0.60;;;11.60;99.90;;;;;;5073624;28;20036;-70
2023/10/29 01:53:46;;;;;;;0.60;0.60;;;11.60;99.90;;;;;;5073891;28;20044;-70
2023/10/29 01:56:12;;;;;;;0.60;0.60;;;11.60;99.90;;;;;;5072549;28;20040;-69
2023/10/29 01:58:37;;;;;;;0.60;0.60;;;12.00;99.90;;;;;;5073868;28;20040;-69
2023/10/29 02:01:11;;;;;;;0.70;0.70;;;11.60;99.90;;;;;;5073799;28;20119;-69
2023/10/29 02:03:37;;;;;;;0.60;0.60;;;11.60;99.90;;;;;;5073069;28;20384;-69
2023/10/29 02:06:03;;;;;;;0.60;0.60;;;11.60;99.90;;;;;;5073761;28;20036;-70
2023/10/29 02:08:28;;;;;;;0.70;0.70;;;11.70;99.90;;;;;;5073234;28;20052;-70
2023/10/29 02:10:54;;;;;;;0.70;0.70;;;11.70;99.90;;;;;;5073695;28;20040;-69
2023/10/29 02:13:19;;;;;;;0.70;0.70;;;11.60;99.90;;;;;;5073558;28;20040;-70
2023/10/29 02:15:45;;;;;;;0.70;0.70;;;11.70;99.90;;;;;;5073555;28;20082;-70
2023/10/29 02:18:11;;;;;;;0.90;0.90;;;11.70;99.90;;;;;;5073607;28;20037;-69
2023/10/29 02:20:37;;;;;;;0.70;0.70;;;11.60;99.90;;;;;;5074030;28;20036;-69
2023/10/29 02:23:03;;;;;;;0.70;0.70;;;11.70;99.90;;;;;;5072354;28;20038;-69
2023/10/29 02:25:29;;;;;;;0.60;0.60;;;11.80;99.90;;;;;;5073497;28;20090;-69
2023/10/29 02:27:54;;;;;;;0.82;0.80;;;11.70;99.90;;;;;;5073532;28;20038;-70
2023/10/29 02:30:20;;;;;;;0.68;0.68;;;11.70;99.90;;;;;;5073515;28;20083;-70
2023/10/29 02:32:45;;;;;;;0.60;0.60;;;11.70;99.90;;;;;;5072307;28;20539;-70
2023/10/29 02:35:11;;;;;;;0.60;0.60;;;12.10;99.90;;;;;;5073351;28;20040;-69
2023/10/29 02:37:37;;;;;;;0.60;0.60;;;11.70;99.90;;;;;;5073400;28;20405;-69
2023/10/29 02:40:04;;;;;;;0.60;0.60;;;11.80;99.90;;;;;;5073440;28;20071;-70
2023/10/29 02:42:29;;;;;;;0.63;0.63;;;11.70;99.90;;;;;;5073594;28;20039;-69
2023/10/29 02:44:55;;;;;;;0.60;0.60;;;11.80;99.90;;;;;;5073351;28;20033;-69
2023/10/29 02:47:20;;;;;;;0.60;0.60;;;11.80;99.90;;;;;;5073338;28;20036;-69
2023/10/29 02:49:46;;;;;;;0.60;0.60;;;11.80;99.90;;;;;;5073202;28;20086;-70
2023/10/29 02:52:12;;;;;;;0.60;0.60;;;11.80;99.90;;;;;;5073309;28;20376;-69
2023/10/29 02:54:37;;;;;;;0.60;0.60;;;11.80;99.90;;;;;;5073192;28;20028;-70
2023/10/29 02:57:03;;;;;;;0.60;0.60;;;11.90;99.90;;;;;;5073114;28;20496;-69
2023/10/29 02:59:29;;;;;;;0.63;0.63;;;11.80;99.90;;;;;;5073167;28;20052;-70
2023/10/29 03:01:54;;;;;;;0.60;0.60;;;11.90;99.90;;;;;;5073143;28;20310;-69
2023/10/29 03:04:21;;;;;;;0.60;0.60;;;11.80;99.90;;;;;;5073018;28;20044;-69
2023/10/29 03:06:46;;;;;;;0.60;0.60;;;11.90;99.90;;;;;;5073787;28;20436;-69
2023/10/29 03:09:13;;;;;;;0.60;0.60;;;11.90;99.90;;;;;;5072734;28;20084;-69
2023/10/29 03:11:38;;;;;;;0.70;0.70;;;12.20;99.90;;;;;;5073323;28;20375;-69
2023/10/29 03:14:04;;;;;;;0.70;0.70;;;11.90;99.90;;;;;;5073819;28;20045;-69
2023/10/29 03:16:30;;;;;;;0.65;0.65;;;11.90;99.90;;;;;;5076920;28;20543;-69
2023/10/29 03:18:55;;;;;;;0.80;0.80;;;11.80;99.90;;;;;;5076760;28;20072;-70
2023/10/29 03:21:21;;;;;;;0.80;0.80;;;12.00;99.90;;;;;;5076593;28;20044;-70
2023/10/29 03:23:46;;;;;;;0.60;0.60;;;12.50;99.90;;;;;;5076690;28;20460;-70
2023/10/29 03:26:12;;;;;;;0.60;0.60;;;12.00;99.90;;;;;;5076827;28;20086;-69
2023/10/29 03:28:39;;;;;;;0.60;0.60;;;12.10;99.90;;;;;;5076860;28;20063;-69
2023/10/29 03:31:15;;;;;;;0.60;0.60;;;12.60;99.90;;;;;;5076625;28;20106;-69
2023/10/29 03:33:41;;;;;;;0.60;0.60;;;12.10;99.90;;;;;;5076398;28;20165;-69
2023/10/29 03:36:08;;;;;;;0.60;0.60;;;12.10;99.90;;;;;;5076450;28;20146;-70
2023/10/29 03:38:34;;;;;;;0.73;0.73;;;12.10;99.90;;;;;;5076423;28;20040;-70
2023/10/29 03:40:59;;;;;;;0.60;0.60;;;12.10;99.90;;;;;;5076426;28;20044;-70
2023/10/29 03:43:25;;;;;;;0.70;0.70;;;12.10;99.90;;;;;;5076160;28;20084;-70
2023/10/29 03:45:51;;;;;;;0.60;0.60;;;12.10;99.90;;;;;;5076367;28;20090;-70
2023/10/29 03:48:16;;;;;;;0.53;0.53;;;12.20;99.90;;;;;;5076238;28;20532;-70
2023/10/29 03:50:42;;;;;;;0.60;0.60;;;12.10;99.90;;;;;;5076240;28;20044;-70
2023/10/29 03:53:08;;;;;;;0.60;0.60;;;12.20;99.90;;;;;;5076160;28;20042;-70
2023/10/29 03:55:37;;;;;;;0.60;0.60;;;12.20;99.90;;;;;;5076220;28;20364;-70
2023/10/29 03:58:02;;;;;;;0.60;0.60;;;12.10;99.90;;;;;;5076259;28;20044;-69
2023/10/29 04:00:28;;;;;;;0.60;0.60;;;12.30;99.90;;;;;;5076098;28;20532;-70
2023/10/29 04:02:55;;;;;;;1.23;1.00;;;12.10;99.90;;;;;;5075844;28;20033;-69
2023/10/29 04:05:21;;;;;;;0.70;0.70;;;12.20;99.90;;;;;;5075839;28;20044;-70
2023/10/29 04:07:47;;;;;;;0.70;0.60;;;12.20;99.90;;;;;;5075888;28;20052;-70
2023/10/29 04:10:13;;;;;;;0.60;0.60;;;12.20;99.90;;;;;;5076102;28;20044;-70
2023/10/29 04:12:39;;;;;;;0.60;0.60;;;12.20;99.90;;;;;;5075805;28;20040;-70
2023/10/29 04:15:05;;;;;;;0.63;0.63;;;12.30;99.90;;;;;;5074348;28;20040;-69
2023/10/29 04:17:31;;;;;;;0.60;0.60;;;12.30;99.90;;;;;;5075676;28;20047;-69
2023/10/29 04:19:58;;;;;;;0.60;0.60;;;12.40;99.90;;;;;;5075869;28;20044;-69
2023/10/29 04:22:23;;;;;;;0.68;0.68;;;12.40;99.90;;;;;;5076034;28;20037;-69
2023/10/29 04:24:49;;;;;;;1.17;1.08;;;12.50;99.90;;;;;;5075620;28;20377;-69
2023/10/29 04:27:15;;;;;;;0.60;0.60;;;12.50;99.90;;;;;;5074902;28;20044;-70
2023/10/29 04:29:40;;;;;;;0.60;0.60;;;12.60;99.90;;;;;;5075541;28;20044;-70
2023/10/29 04:32:06;;;;;;;0.70;0.70;;;12.60;99.90;;;;;;5075491;28;20041;-70
2023/10/29 04:34:32;;;;;;;0.60;0.60;;;12.60;99.90;;;;;;5074418;28;20044;-70
2023/10/29 04:36:58;;;;;;;0.60;0.60;;;12.60;99.90;;;;;;5075392;28;20473;-69
2023/10/29 04:39:24;;;;;;;0.60;0.60;;;12.60;99.90;;;;;;5075690;28;20044;-69
2023/10/29 04:41:50;;;;;;;0.60;0.60;;;12.60;99.90;;;;;;5075293;28;20119;-69
2023/10/29 04:44:16;;;;;;;0.70;0.70;;;12.60;99.90;;;;;;5075427;28;20267;-70
2023/10/29 04:46:42;;;;;;;0.60;0.60;;;12.70;99.90;;;;;;5075209;28;20461;-70
2023/10/29 04:49:07;;;;;;;0.57;0.57;;;12.70;99.90;;;;;;5075160;28;20040;-69
2023/10/29 04:51:34;;;;;;;0.60;0.60;;;12.70;99.90;;;;;;5075153;28;20110;-70
2023/10/29 04:54:02;;;;;;;0.50;0.50;;;12.70;99.90;;;;;;5075202;28;20040;-69
2023/10/29 04:56:28;;;;;;;7.32;0.80;;;12.70;99.90;;;;;;5074856;28;20043;-69
2023/10/29 04:58:53;;;;;;;0.60;0.60;;;12.70;99.90;;;;;;5074929;28;20036;-70
2023/10/29 05:01:19;;;;;;;0.70;0.70;;;12.60;99.90;;;;;;5074798;28;20048;-70
2023/10/29 05:03:45;;;;;;;0.65;0.65;;;12.90;99.90;;;;;;5074878;28;20089;-70
2023/10/29 05:06:21;;;;;;;0.60;0.60;;;12.60;99.90;;;;;;5074606;28;20388;-70
2023/10/29 05:08:47;;;;;;;0.60;0.60;;;12.60;99.90;;;;;;5074896;28;20547;-70
2023/10/29 05:11:13;;;;;;;0.70;0.70;;;13.10;99.90;;;;;;5074729;28;20096;-70
2023/10/29 05:13:42;;;;;;;0.60;0.60;;;12.70;99.90;;;;;;5074760;28;20049;-70
2023/10/29 05:16:08;;;;;;;0.60;0.60;;;12.70;99.90;;;;;;5074517;28;20041;-70
2023/10/29 05:18:34;;;;;;;0.80;0.80;;;12.70;99.90;;;;;;5075020;28;20055;-70
2023/10/29 05:20:59;;;;;;;0.60;0.60;;;12.70;99.90;;;;;;5074483;28;20049;-69
2023/10/29 05:23:26;;;;;;;3.22;3.03;;;12.70;99.90;;;;;;5074460;28;20094;-70
2023/10/29 05:25:52;;;;;;;0.52;0.52;;;12.70;99.90;;;;;;5074552;28;20537;-70
2023/10/29 05:28:18;;;;;;;0.60;0.60;;;12.70;99.90;;;;;;5074335;28;20087;-70
2023/10/29 05:30:43;;;;;;;0.50;0.50;;;12.60;99.90;;;;;;5074229;28;20040;-70
2023/10/29 05:33:09;;;;;;;0.60;0.60;;;12.70;99.90;;;;;;5074322;28;20122;-70
2023/10/29 05:35:35;;;;;;;1.15;1.15;;;12.70;99.90;;;;;;5074520;28;20043;-70
2023/10/29 05:38:00;;;;;;;0.65;0.65;;;12.70;99.90;;;;;;5073332;28;20048;-70
2023/10/29 05:40:26;;;;;;;0.60;0.60;;;12.70;99.90;;;;;;5074093;28;20468;-71
2023/10/29 05:42:52;;;;;;;0.60;0.60;;;12.70;99.90;;;;;;5074106;28;20127;-71
2023/10/29 05:45:18;;;;;;;0.60;0.60;;;12.70;99.90;;;;;;5074000;28;20044;-69
2023/10/29 05:47:43;;;;;;;0.57;0.57;;;12.70;99.90;;;;;;5074054;28;20040;-69
2023/10/29 05:50:09;;;;;;;0.55;0.55;;;12.60;99.90;;;;;;5074269;28;20047;-69
2023/10/29 05:52:35;;;;;;;0.60;0.60;;;12.70;99.90;;;;;;5073962;28;20058;-69
2023/10/29 05:55:02;;;;;;;0.60;0.60;;;12.70;99.90;;;;;;5073914;28;20036;-69
2023/10/29 05:57:28;;;;;;;0.60;0.60;;;12.70;99.90;;;;;;5073786;28;20052;-69
2023/10/29 05:59:53;;;;;;;0.40;0.40;;;12.60;99.90;;;;;;5073893;28;20036;-69
2023/10/29 06:02:19;;;;;;;0.60;0.60;;;12.70;99.90;;;;;;5073494;28;20044;-70
2023/10/29 06:04:45;;;;;;;0.60;0.60;;;13.60;99.90;;;;;;5073321;28;20085;-70
2023/10/29 06:07:11;;;;;;;0.60;0.60;;;12.60;99.90;;;;;;5072433;28;20036;-70
2023/10/29 06:09:37;;;;;;;0.60;0.60;;;12.60;99.90;;;;;;5073881;28;20055;-70
2023/10/29 06:12:02;;;;;;;0.55;0.55;;;12.60;99.90;;;;;;5073408;28;20119;-70
2023/10/29 06:14:28;;;;;;;0.60;0.60;;;12.60;99.90;;;;;;5073646;28;20040;-70
2023/10/29 06:16:57;;;;;;;0.70;0.70;;;12.60;99.90;;;;;;5073622;28;20044;-70
2023/10/29 06:19:23;;;;;;;0.60;0.60;;;12.60;99.90;;;;;;5073559;28;20055;-70
2023/10/29 06:21:49;;;;;;;0.50;0.50;;;12.60;99.90;;;;;;5073569;28;20052;-70
2023/10/29 06:24:14;;;;;;;0.60;0.60;;;12.70;99.90;;;;;;5073634;28;20033;-70
2023/10/29 06:26:41;;;;;;;0.50;0.50;;;12.70;99.90;;;;;;5073757;28;20062;-70
2023/10/29 06:29:08;;;;;;;0.50;0.50;;;12.80;99.90;;;;;;5073535;28;20376;-70
2023/10/29 06:31:34;;;;;;;0.50;0.50;;;12.80;99.90;;;;;;5073387;28;20086;-70
2023/10/29 06:34:01;;;;;;;0.60;0.60;;;12.80;99.90;;;;;;5073444;28;20044;-70
2023/10/29 06:36:27;;;;;;;;;;;12.70;99.90;;;;;;5073728;28;20334;-70
2023/10/29 06:38:53;;;;;;;0.60;0.60;;;12.70;99.90;;;;;;5072472;28;19963;-70
2023/10/29 06:41:19;;;;;;;0.50;0.50;;;12.70;99.90;;;;;;5073499;28;20043;-70
2023/10/29 06:43:44;;;;;;;0.60;0.60;;;12.70;99.90;;;;;;5073234;28;20059;-70
2023/10/29 06:46:10;;;;;;;0.77;0.77;;;12.60;99.90;;;;;;5073087;28;20461;-70
2023/10/29 06:48:41;;;;;;;0.70;0.60;;;12.60;99.90;;;;;;5073694;28;20043;-70
2023/10/29 06:51:08;;;;;;;0.55;0.55;;;12.60;99.90;;;;;;5076209;28;20056;-70
2023/10/29 06:53:34;;;;;;;0.50;0.50;;;12.60;99.90;;;;;;5077064;28;20044;-70
2023/10/29 06:56:03;;;;;;;0.50;0.50;;;12.60;99.90;;;;;;5077181;28;20467;-70
2023/10/29 06:58:28;;;;;;;0.60;0.60;;;12.60;99.90;;;;;;5077096;28;20044;-70
2023/10/29 07:00:54;;;;;;;0.60;0.60;;;12.70;99.90;;;;;;5076919;28;20040;-70
2023/10/29 07:03:20;;;;;;;0.60;0.60;;;12.60;99.90;;;;;;5077175;28;20127;-70
2023/10/29 07:05:45;;;;;;;0.60;0.60;;;12.60;99.90;;;;;;5077119;28;20341;-70
2023/10/29 07:08:11;;;;;;;0.60;0.60;;;12.70;99.90;;;;;;5076723;28;20087;-70
2023/10/29 07:10:36;;;;;;;0.50;0.50;;;13.10;99.90;;;;;;5077208;28;20067;-70
2023/10/29 07:13:02;;;;;;;0.50;0.50;;;12.70;99.90;;;;;;5076910;28;20563;-70
2023/10/29 07:15:28;;;;;;;0.60;0.60;;;;;;;;;;5076431;28;20044;-70
2023/10/29 07:17:55;;;;;;;0.60;0.60;;;12.70;99.90;;;;;;5076852;28;20044;-70
2023/10/29 07:20:20;;;;;;;0.60;0.60;;;12.70;99.90;;;;;;5076967;28;20040;-70
2023/10/29 07:22:46;;;;;;;0.60;0.60;;;12.80;99.90;;;;;;5076760;28;20044;-70
2023/10/29 07:25:12;;;;;;;0.52;0.52;;;12.80;99.90;;;;;;5076660;28;20048;-70
2023/10/29 07:27:37;;;;;;;0.52;0.52;;;12.80;99.90;;;;;;5076402;28;20541;-70
2023/10/29 07:30:04;;;;;;;0.60;0.60;;;12.80;99.90;;;;;;5076366;28;20090;-69
2023/10/29 07:32:30;;;;;;;;;;;12.90;99.90;;;;;;5077332;28;20036;-69
2023/10/29 07:34:56;;;;;;;1.85;1.65;;;12.90;99.90;;;;;;5076447;28;20356;-69
2023/10/29 07:37:21;;;;;;;0.70;0.70;;;12.90;99.90;;;;;;5076516;28;20044;-69
2023/10/29 07:39:47;;;;;;;0.50;0.50;;;12.90;99.90;;;;;;5076371;28;20500;-69
2023/10/29 07:42:12;;;;;;;0.67;0.67;;;12.90;99.90;;;;;;5076492;28;20033;-72
2023/10/29 07:44:38;;;;;;;0.80;0.80;;;12.90;99.90;;;;;;5076307;28;20456;-70
2023/10/29 07:47:08;;;;;;;0.60;0.60;;;12.90;99.90;;;;;;5076272;28;20117;-69
2023/10/29 07:49:37;;;;;;;0.95;0.93;;;12.90;99.90;;;;;;5076235;28;20036;-70
2023/10/29 07:52:04;;;;;;;0.60;0.60;;;12.90;99.90;;;;;;5076145;28;20377;-70
2023/10/29 07:54:30;;;;;;;0.60;0.60;;;12.90;99.90;;;;;;5075025;28;20048;-70
2023/10/29 07:56:55;;;;;;;0.60;0.60;;;12.90;99.90;;;;;;5076076;28;20044;-70
2023/10/29 07:59:21;;;;;;;0.60;0.60;;;12.90;99.90;;;;;;5076102;28;20072;-70
2023/10/29 08:01:46;;;;;;;0.60;0.60;;;12.90;99.90;;;;;;5075026;28;20464;-71
2023/10/29 08:04:12;;;;;;;0.50;0.50;;;12.90;99.90;;;;;;5074945;28;20040;-68
2023/10/29 08:06:38;;;;;;;0.60;0.60;;;12.90;99.90;;;;;;5075675;28;20040;-71
2023/10/29 08:09:03;;;;;;;0.60;0.60;;;12.80;99.90;;;;;;5075532;28;20131;-69
2023/10/29 08:11:29;;;;;;;0.60;0.60;;;12.90;99.90;;;;;;5075919;28;20393;-69
2023/10/29 08:13:55;;;;;;;0.60;0.60;;;12.80;99.90;;;;;;5075805;28;20044;-70
2023/10/29 08:16:22;;;;;;;;;;;12.80;99.90;;;;;;5076095;28;20044;-69
2023/10/29 08:18:47;;;;;;;0.60;0.60;;;12.80;99.90;;;;;;5075728;28;20267;-69
2023/10/29 08:21:13;;;;;;;0.60;0.60;;;12.80;99.90;;;;;;5075679;28;20074;-69
2023/10/29 08:23:39;;;;;;;0.60;0.60;;;12.90;99.90;;;;;;5075585;28;20040;-69
2023/10/29 08:26:04;;;;;;;0.60;0.60;;;12.80;99.90;;;;;;5075589;28;20362;-71
2023/10/29 08:28:30;;;;;;;0.60;0.60;;;12.80;99.90;;;;;;5075422;28;20041;-69
2023/10/29 08:30:56;;;;;;;0.60;0.60;;;12.90;99.90;;;;;;5074282;28;20041;-69
2023/10/29 08:33:22;;;;;;;0.60;0.60;;;12.90;99.90;;;;;;5075826;28;20094;-70
2023/10/29 08:35:47;;;;;;;0.55;0.55;;;12.90;99.90;;;;;;5075446;28;20420;-69
2023/10/29 08:38:13;;;;;;;0.60;0.60;;;13.50;99.90;;;;;;5075467;28;20457;-70
2023/10/29 08:40:39;;;;;;;0.60;0.60;;;13.00;99.90;;;;;;5075353;28;20055;-70
2023/10/29 08:43:05;;;;;;;0.60;0.60;;;13.10;99.90;;;;;;5075229;28;20393;-70
2023/10/29 08:45:31;;;;;;;0.60;0.60;;;13.10;99.90;;;;;;5075208;28;20373;-70
2023/10/29 08:47:56;;;;;;;0.60;0.60;;;13.20;99.90;;;;;;5075227;28;20029;-70
2023/10/29 08:50:22;;;;;;;0.60;0.60;;;13.20;99.90;;;;;;5074864;28;20369;-69
2023/10/29 08:52:47;;;;;;;0.70;0.70;;;13.30;99.90;;;;;;5075127;28;20036;-70
2023/10/29 08:55:13;;;;;;;0.60;0.60;;;13.30;99.90;;;;;;5074986;28;20081;-70
2023/10/29 08:57:39;;;;;;;0.60;0.60;;;13.30;99.90;;;;;;5074883;28;20123;-70
2023/10/29 09:00:05;;;;;;;0.60;0.60;;;13.40;99.90;;;;;;5074934;28;20044;-69
2023/10/29 09:02:31;;;;;;;0.60;0.60;;;13.40;99.90;;;;;;5074875;28;20051;-69
2023/10/29 09:04:57;;;;;;;0.60;0.60;;;13.50;99.90;;;;;;5074804;28;20041;-70
2023/10/29 09:07:27;;;;;;;0.50;0.50;;;13.50;99.90;;;;;;5074602;28;20048;-70
2023/10/29 09:09:52;;;;;;;0.60;0.60;;;13.60;99.90;;;;;;5074665;28;20487;-69
2023/10/29 09:12:19;;;;;;;0.50;0.50;;;13.60;99.90;;;;;;5074505;28;20036;-70
2023/10/29 09:14:45;;;;;;;0.52;0.52;;;13.50;99.90;;;;;;5074532;28;20076;-70
2023/10/29 09:17:10;;;;;;;0.50;0.50;;;13.50;99.90;;;;;;5074543;28;20079;-70
2023/10/29 09:19:36;;;;;;;0.60;0.60;;;13.50;99.90;;;;;;5074545;28;20036;-70
2023/10/29 09:22:03;;;;;;;;;;;13.60;99.90;;;;;;5075304;28;20380;-70
2023/10/29 09:24:28;;;;;;;0.50;0.50;;;13.70;99.90;;;;;;5074396;28;19920;-70
2023/10/29 09:26:54;;;;;;;0.60;0.60;;;13.60;99.90;;;;;;5074260;28;20032;-70
2023/10/29 09:29:19;;;;;;;0.50;0.50;;;13.60;99.90;;;;;;5073415;28;20044;-70
2023/10/29 09:31:45;;;;;;;0.60;0.60;;;13.70;99.90;;;;;;5074259;28;20037;-72
2023/10/29 09:34:11;;;;;;;0.50;0.50;;;13.70;99.90;;;;;;5074149;28;20052;-71
2023/10/29 09:36:38;;;;;;;0.60;0.60;;;13.60;99.90;;;;;;5074110;28;20098;-71
2023/10/29 09:39:04;;;;;;;0.70;0.70;;;13.60;99.90;;;;;;5074237;28;20344;-71
2023/10/29 09:41:31;;;;;;;0.50;0.50;;;13.70;99.90;;;;;;5072949;28;20472;-70
2023/10/29 09:43:58;;;;;;;0.50;0.50;;;13.70;99.90;;;;;;5074495;28;20029;-71
2023/10/29 09:46:24;;;;;;;0.50;0.50;;;13.80;99.90;;;;;;5073653;28;20516;-73
2023/10/29 09:48:52;;;;;;;0.52;0.52;;;13.80;99.90;;;;;;5073901;28;20130;-70
2023/10/29 09:51:20;;;;;;;0.80;0.77;;;13.80;99.90;;;;;;5073892;28;20055;-71
2023/10/29 09:53:46;;;;;;;0.50;0.50;;;13.70;99.90;;;;;;5073792;28;20092;-70
2023/10/29 09:56:12;;;;;;;0.50;0.50;;;13.80;99.90;;;;;;5073602;28;20516;-71
2023/10/29 09:58:39;;;;;;;0.43;0.43;;;13.80;99.90;;;;;;5073722;28;20170;-71
2023/10/29 10:01:05;;;;;;;;;;;13.90;99.90;;;;;;5073922;28;20049;-75
2023/10/29 10:03:31;;;;;;;0.50;0.50;;;13.90;99.90;;;;;;5074111;28;19923;-76
2023/10/29 10:06:00;;;;;;;0.50;0.50;;;14.00;99.90;;;;;;5073754;28;20086;-73
2023/10/29 10:08:26;;;;;;;1.45;0.77;;;14.20;99.90;;;;;;5073731;28;20283;-70
2023/10/29 10:10:53;;;;;;;0.50;0.50;;;14.10;99.90;;;;;;5073447;28;20413;-73
2023/10/29 10:13:34;;;;;;;0.50;0.50;;;14.10;99.90;;;;;;5073570;28;20082;-77
2023/10/29 10:16:11;;;;;;;0.50;0.50;;;14.00;99.90;;;;;;5073282;28;20040;-68
2023/10/29 10:18:51;;;;;;;0.50;0.50;;;14.00;99.90;;;;;;5073483;28;20043;-75
2023/10/29 10:21:20;;;;;;;0.50;0.50;;;13.90;99.90;;;;;;5072738;28;20279;-71
2023/10/29 10:23:57;;;;;;;0.40;0.40;;;13.90;99.90;;;;;;5070903;28;20532;-71
2023/10/29 10:26:34;;;;;;;0.50;0.50;;;13.90;99.90;;;;;;5072081;28;20032;-70
2023/10/29 10:29:01;;;;;;;0.60;0.60;;;13.90;99.90;;;;;;5073225;28;20052;-72
2023/10/29 10:31:27;;;;;;;0.50;0.50;;;13.90;99.90;;;;;;5073434;28;20045;-72
2023/10/29 10:34:14;;;;;;;0.60;0.60;;;14.00;99.90;;;;;;5073337;28;20527;-71
2023/10/29 10:36:44;;;;;;;0.77;0.77;;;14.00;99.90;;;;;;5073271;28;20032;-71
2023/10/29 10:39:11;;;;;;;0.70;0.70;;;14.10;99.90;;;;;;5073817;28;20036;-76
2023/10/29 10:41:47;;;;;;;0.52;0.52;;;14.10;99.90;;;;;;5073429;28;20388;-71
2023/10/29 10:44:14;;;;;;;0.50;0.50;;;14.20;99.90;;;;;;5073300;28;20091;-71
2023/10/29 10:46:49;;;;;;;0.50;0.50;;;14.30;99.90;;;;;;5073783;28;20452;-71
2023/10/29 10:49:15;;;;;;;4.10;2.08;;;14.40;99.90;;;;;;5073353;28;20119;-72
2023/10/29 10:51:41;;;;;;;0.60;0.60;;;14.50;99.90;;;;;;5073008;28;20378;-72
2023/10/29 10:54:07;;;;;;;0.50;0.50;;;14.50;99.90;;;;;;5073275;28;20044;-70
2023/10/29 10:56:37;;;;;;;0.57;0.57;;;14.60;99.90;;;;;;5073118;28;20036;-71
2023/10/29 10:59:09;;;;;;;0.50;0.50;;;14.60;99.90;;;;;;5073170;28;20039;-71
2023/10/29 11:01:36;;;;;;;0.60;0.60;;;14.60;99.90;;;;;;5072942;28;20507;-71
2023/10/29 11:04:03;;;;;;;3.22;1.08;;;14.60;99.90;;;;;;5073239;28;20395;-72
2023/10/29 11:06:30;;;;;;;0.60;0.60;;;14.50;99.90;;;;;;5073319;28;20045;-71
2023/10/29 11:08:56;;;;;;;0.60;0.60;;;14.50;99.90;;;;;;5073054;28;20127;-72
2023/10/29 11:11:30;;;;;;;0.60;0.60;;;14.40;99.90;;;;;;5072921;28;20044;-72
2023/10/29 11:14:18;;;;;;;0.57;0.57;;;14.40;99.90;;;;;;5073317;28;20271;-72
2023/10/29 11:16:57;;;;;;;0.60;0.60;;;14.40;99.90;;;;;;5073253;28;20346;-72
2023/10/29 11:19:37;;;;;;;0.60;0.60;;;14.40;99.90;;;;;;5073173;28;20116;-72
2023/10/29 11:22:11;;;;;;;0.60;0.60;;;14.40;99.90;;;;;;5072812;28;20037;-76
2023/10/29 11:24:37;;;;;;;0.50;0.50;;;14.50;99.90;;;;;;5073125;28;20043;-75
2023/10/29 11:27:58;;;;;;;2.23;1.10;;;14.50;99.90;;;;;;5072935;28;20131;-74
2023/10/29 11:30:27;;;;;;;0.55;0.55;;;14.60;99.90;;;;;;5071313;28;20055;-71
2023/10/29 11:33:21;;;;;;;0.60;0.60;;;14.60;99.90;;;;;;5073276;28;20044;-71
2023/10/29 11:35:46;;;;;;;0.50;0.50;;;14.60;99.90;;;;;;5073466;28;20048;-71
2023/10/29 11:38:36;;;;;;;0.60;0.60;;;14.60;99.90;;;;;;5076560;28;20047;-72
2023/10/29 11:41:32;;;;;;;0.50;0.50;;;14.60;99.90;;;;;;5076599;28;20040;-72
2023/10/29 11:44:27;;;;;;;0.50;0.50;;;14.70;99.90;;;;;;5076381;28;20441;-71
2023/10/29 11:46:59;;;;;;;0.60;0.60;;;14.70;99.90;;;;;;5076376;28;20048;-72
2023/10/29 11:49:26;;;;;;;0.55;0.55;;;14.80;99.90;;;;;;5076304;28;20044;-72
2023/10/29 11:51:57;;;;;;;0.60;0.60;;;14.90;99.90;;;;;;5076630;28;20036;-72
2023/10/29 11:54:23;;;;;;;0.60;0.60;;;15.00;99.90;;;;;;5076121;28;20049;-71
2023/10/29 11:56:50;;;;;;;1.17;1.17;;;15.00;99.90;;;;;;5076116;28;20036;-72
2023/10/29 11:59:15;;;;;;;;;;;15.10;99.90;;;;;;5076148;28;20429;-75
2023/10/29 12:01:42;;;;;;;0.50;0.50;;;15.00;99.90;;;;;;5076078;28;19924;-74
2023/10/29 12:04:13;;;;;;;0.50;0.50;;;15.00;99.90;;;;;;5076051;28;20044;-72
2023/10/29 12:06:40;;;;;;;8.07;2.05;;;15.00;99.90;;;;;;5075759;28;20376;-72
2023/10/29 12:09:25;;;;;;;0.50;0.50;;;15.00;99.90;;;;;;5076101;28;20427;-73
2023/10/29 12:11:52;;;;;;;0.60;0.60;;;14.90;99.90;;;;;;5075239;28;20040;-73
2023/10/29 12:14:40;;;;;;;0.50;0.50;;;14.80;99.90;;;;;;5075798;28;20053;-72
2023/10/29 12:17:06;;;;;;;0.60;0.60;;;14.80;99.90;;;;;;5076469;28;20039;-72
2023/10/29 12:19:42;;;;;;;0.60;0.60;;;14.80;99.90;;;;;;5075689;28;20484;-73
2023/10/29 12:22:21;;;;;;;0.50;0.50;;;14.70;99.90;;;;;;5075643;28;20377;-73
2023/10/29 12:24:53;;;;;;;0.80;0.80;;;14.70;99.90;;;;;;5075565;28;20113;-73
2023/10/29 12:27:22;;;;;;;3.05;1.27;;;14.60;99.90;;;;;;5076071;28;20059;-72
2023/10/29 12:29:49;;;;;;;0.50;0.50;;;14.60;99.90;;;;;;5075960;28;20074;-72
2023/10/29 12:32:23;;;;;;;1.65;1.15;;;14.60;99.90;;;;;;5075716;28;20105;-73
2023/10/29 12:34:59;;;;;;;0.50;0.50;;;14.60;99.90;;;;;;5075462;28;20403;-72
2023/10/29 12:37:29;;;;;;;0.68;0.68;;;14.60;99.90;;;;;;5075227;28;20387;-73
2023/10/29 12:39:59;;;;;;;0.50;0.50;;;14.50;99.90;;;;;;5075827;28;20040;-72
2023/10/29 12:42:53;;;;;;;0.70;0.70;;;14.50;99.90;;;;;;5075725;28;20087;-72
2023/10/29 12:45:30;;;;;;;0.80;0.63;;;14.40;99.90;;;;;;5075334;28;20055;-72
2023/10/29 12:48:13;;;;;;;0.50;0.50;;;14.50;99.90;;;;;;5075175;28;20116;-73
2023/10/29 12:50:48;;;;;;;0.60;0.60;;;14.40;99.90;;;;;;5075119;28;20041;-72